createdAt,value
2022-09-04T00:00:08.672Z,63.79
2022-09-04T00:01:57.438Z,62.43
2022-09-04T00:03:13.706Z,60.39
2022-09-04T00:04:21.401Z,57.98
2022-09-04T00:05:36.307Z,55.88
2022-09-04T00:06:55.444Z,55.42
2022-09-04T00:08:17.660Z,55.77
2022-09-04T00:09:41.017Z,56.41
2022-09-04T00:11:00.661Z,57.27
2022-09-04T00:12:08.804Z,58.07
2022-09-04T00:13:15.062Z,58.65
2022-09-04T00:14:22.560Z,59.05
2022-09-04T00:15:35.410Z,59.51
2022-09-04T00:17:03.363Z,60.15
2022-09-04T00:18:31.016Z,60.73
2022-09-04T00:19:43.879Z,61.16
2022-09-04T00:20:55.198Z,61.57
2022-09-04T00:22:00.359Z,61.89
2022-09-04T00:23:11.456Z,62.17
2022-09-04T00:24:21.630Z,62.54
2022-09-04T00:26:02.913Z,63.58
2022-09-04T00:27:29.138Z,63.01
2022-09-04T00:28:42.841Z,60.97
2022-09-04T00:30:02.416Z,59.24
2022-09-04T00:31:15.972Z,56.71
2022-09-04T00:32:38.691Z,55.81
2022-09-04T00:34:03.063Z,56.21
2022-09-04T00:35:13.893Z,57.11
2022-09-04T00:36:18.366Z,57.81
2022-09-04T00:37:24.960Z,58.39
2022-09-04T00:38:26.492Z,58.91
2022-09-04T00:39:50.351Z,59.38
2022-09-04T00:41:15.724Z,60.04
2022-09-04T00:42:42.175Z,60.71
2022-09-04T00:44:14.801Z,61.19
2022-09-04T00:46:05.964Z,61.71
2022-09-04T00:47:23.123Z,62.05
2022-09-04T00:48:30.727Z,62.35
2022-09-04T00:50:01.173Z,62.87
2022-09-04T00:51:17.144Z,63.81
2022-09-04T00:52:57.470Z,62.68
2022-09-04T00:54:08.907Z,60.07
2022-09-04T00:55:22.460Z,58.09
2022-09-04T00:56:41.296Z,55.95
2022-09-04T00:58:12.638Z,55.66
2022-09-04T00:59:48.338Z,56.24
2022-09-04T01:00:53.993Z,57.18
2022-09-04T01:02:09.080Z,57.81
2022-09-04T01:03:30.217Z,58.51
2022-09-04T01:04:50.688Z,59.26
2022-09-04T01:05:56.726Z,59.81
2022-09-04T01:07:05.026Z,60.22
2022-09-04T01:08:20.480Z,60.64
2022-09-04T01:09:32.255Z,61.10
2022-09-04T01:11:04.663Z,61.49
2022-09-04T01:12:17.608Z,61.96
2022-09-04T01:13:45.262Z,62.24
2022-09-04T01:15:17.740Z,62.89
2022-09-04T01:16:41.683Z,63.72
2022-09-04T01:18:00.073Z,62.45
2022-09-04T01:19:25.317Z,60.54
2022-09-04T01:20:44.893Z,58.34
2022-09-04T01:22:16.211Z,56.08
2022-09-04T01:23:36.056Z,55.81
2022-09-04T01:25:03.264Z,56.51
2022-09-04T01:26:24.785Z,57.37
2022-09-04T01:27:50.029Z,58.19
2022-09-04T01:29:19.345Z,58.99
2022-09-04T01:30:22.375Z,59.73
2022-09-04T01:31:36.619Z,60.19
2022-09-04T01:33:04.585Z,60.76
2022-09-04T01:34:19.781Z,61.31
2022-09-04T01:35:34.537Z,61.73
2022-09-04T01:36:45.489Z,62.08
2022-09-04T01:38:07.428Z,62.39
2022-09-04T01:39:09.372Z,63.46
2022-09-04T01:40:35.074Z,63.86
2022-09-04T01:41:56.801Z,62.54
2022-09-04T01:43:07.033Z,60.75
2022-09-04T01:44:11.182Z,59.08
2022-09-04T01:45:20.136Z,57.09
2022-09-04T01:47:00.937Z,56.09
2022-09-04T01:48:08.078Z,56.61
2022-09-04T01:49:23.175Z,57.40
2022-09-04T01:50:31.408Z,58.40
2022-09-04T01:51:54.802Z,59.16
2022-09-04T01:53:11.648Z,59.89
2022-09-04T01:54:44.159Z,60.47
2022-09-04T01:56:09.806Z,61.14
2022-09-04T01:57:29.656Z,61.65
2022-09-04T01:58:54.945Z,62.19
2022-09-04T02:00:06.328Z,63.01
2022-09-04T02:01:32.943Z,63.96
2022-09-04T02:02:56.641Z,63.09
2022-09-04T02:04:21.133Z,61.32
2022-09-04T02:05:30.973Z,59.09
2022-09-04T02:07:02.778Z,57.03
2022-09-04T02:08:26.501Z,56.22
2022-09-04T02:09:53.799Z,56.93
2022-09-04T02:11:16.370Z,57.98
2022-09-04T02:12:55.221Z,58.96
2022-09-04T02:14:29.561Z,60.02
2022-09-04T02:15:58.456Z,60.86
2022-09-04T02:17:12.868Z,61.47
2022-09-04T02:18:26.523Z,61.93
2022-09-04T02:19:47.857Z,62.37
2022-09-04T02:21:28.650Z,63.33
2022-09-04T02:22:50.158Z,63.29
2022-09-04T02:24:30.778Z,61.59
2022-09-04T02:25:51.067Z,59.25
2022-09-04T02:27:06.811Z,56.85
2022-09-04T02:28:22.184Z,56.18
2022-09-04T02:29:29.594Z,56.66
2022-09-04T02:30:44.796Z,57.48
2022-09-04T02:32:18.515Z,58.43
2022-09-04T02:33:42.966Z,59.39
2022-09-04T02:35:20.865Z,60.13
2022-09-04T02:36:47.485Z,61.07
2022-09-04T02:38:04.823Z,61.86
2022-09-04T02:39:53.924Z,62.50
2022-09-04T02:40:58.609Z,63.85
2022-09-04T02:42:39.860Z,63.23
2022-09-04T02:44:02.955Z,61.10
2022-09-04T02:45:07.612Z,59.27
2022-09-04T02:46:37.374Z,57.38
2022-09-04T02:48:00.236Z,56.38
2022-09-04T02:49:20.615Z,56.96
2022-09-04T02:51:13.737Z,57.98
2022-09-04T02:52:46.230Z,59.43
2022-09-04T02:54:21.329Z,60.47
2022-09-04T02:55:52.785Z,61.45
2022-09-04T02:57:03.021Z,62.37
2022-09-04T02:58:29.177Z,63.58
2022-09-04T02:59:59.293Z,64.04
2022-09-04T03:01:15.008Z,62.55
2022-09-04T03:02:34.648Z,60.94
2022-09-04T03:03:53.555Z,59.40
2022-09-04T03:05:25.323Z,57.39
2022-09-04T03:06:58.993Z,56.86
2022-09-04T03:08:15.590Z,57.83
2022-09-04T03:09:29.750Z,58.81
2022-09-04T03:10:44.561Z,59.67
2022-09-04T03:11:57.661Z,60.51
2022-09-04T03:13:28.183Z,61.31
2022-09-04T03:14:44.896Z,62.23
2022-09-04T03:16:04.265Z,63.34
2022-09-04T03:17:14.458Z,64.01
2022-09-04T03:18:55.269Z,63.11
2022-09-04T03:20:06.283Z,60.99
2022-09-04T03:21:19.261Z,59.57
2022-09-04T03:22:31.933Z,57.64
2022-09-04T03:23:50.705Z,56.61
2022-09-04T03:25:06.387Z,57.09
2022-09-04T03:26:19.432Z,58.15
2022-09-04T03:27:22.094Z,59.28
2022-09-04T03:29:05.334Z,60.15
2022-09-04T03:30:09.197Z,61.51
2022-09-04T03:31:24.657Z,62.21
2022-09-04T03:32:35.067Z,63.44
2022-09-04T03:33:50.318Z,64.18
2022-09-04T03:35:27.382Z,63.32
2022-09-04T03:36:43.593Z,61.45
2022-09-04T03:38:02.220Z,59.97
2022-09-04T03:39:29.727Z,58.26
2022-09-04T03:40:50.012Z,56.93
2022-09-04T03:42:05.507Z,57.43
2022-09-04T03:43:34.645Z,58.45
2022-09-04T03:44:47.457Z,59.63
2022-09-04T03:46:00.073Z,60.61
2022-09-04T03:47:24.673Z,61.34
2022-09-04T03:48:36.407Z,62.22
2022-09-04T03:50:10.580Z,63.20
2022-09-04T03:51:38.288Z,64.16
2022-09-04T03:53:10.033Z,62.82
2022-09-04T03:54:42.548Z,60.87
2022-09-04T03:56:02.445Z,58.92
2022-09-04T03:57:34.553Z,56.95
2022-09-04T03:58:54.479Z,57.01
2022-09-04T04:00:15.446Z,58.03
2022-09-04T04:01:25.985Z,59.14
2022-09-04T04:02:39.465Z,60.04
2022-09-04T04:03:47.011Z,60.90
2022-09-04T04:05:20.573Z,61.71
2022-09-04T04:06:51.378Z,62.91
2022-09-04T04:08:17.944Z,64.19
2022-09-04T04:09:40.136Z,63.27
2022-09-04T04:11:12.549Z,61.62
2022-09-04T04:12:58.125Z,59.84
2022-09-04T04:14:37.602Z,57.39
2022-09-04T04:16:24.834Z,57.14
2022-09-04T04:18:16.113Z,58.48
2022-09-04T04:19:28.914Z,60.04
2022-09-04T04:20:44.492Z,61.01
2022-09-04T04:22:25.536Z,61.90
2022-09-04T04:23:56.475Z,63.37
2022-09-04T04:25:13.455Z,64.10
2022-09-04T04:26:26.201Z,62.99
2022-09-04T04:27:49.312Z,61.45
2022-09-04T04:29:08.529Z,59.75
2022-09-04T04:30:17.715Z,57.84
2022-09-04T04:31:27.646Z,56.93
2022-09-04T04:33:07.582Z,57.33
2022-09-04T04:34:40.934Z,58.65
2022-09-04T04:36:17.622Z,59.97
2022-09-04T04:37:27.755Z,61.22
2022-09-04T04:38:47.605Z,62.05
2022-09-04T04:40:18.899Z,63.22
2022-09-04T04:42:02.609Z,64.15
2022-09-04T04:43:31.076Z,62.57
2022-09-04T04:45:20.837Z,60.77
2022-09-04T04:46:44.807Z,58.58
2022-09-04T04:48:24.987Z,57.04
2022-09-04T04:50:06.383Z,57.72
2022-09-04T04:51:32.602Z,59.25
2022-09-04T04:53:02.180Z,60.53
2022-09-04T04:54:22.449Z,61.70
2022-09-04T04:55:59.859Z,62.69
2022-09-04T04:57:27.431Z,64.25
2022-09-04T04:58:47.090Z,63.50
2022-09-04T05:00:05.182Z,61.88
2022-09-04T05:01:20.889Z,60.39
2022-09-04T05:02:36.872Z,59.04
2022-09-04T05:04:04.242Z,57.31
2022-09-04T05:05:26.550Z,57.25
2022-09-04T05:06:41.718Z,58.32
2022-09-04T05:07:52.401Z,59.46
2022-09-04T05:08:56.744Z,60.46
2022-09-04T05:10:09.378Z,61.29
2022-09-04T05:11:44.482Z,62.10
2022-09-04T05:13:20.102Z,63.74
2022-09-04T05:14:58.626Z,63.96
2022-09-04T05:16:19.539Z,62.19
2022-09-04T05:17:43.911Z,60.53
2022-09-04T05:19:07.181Z,58.97
2022-09-04T05:20:14.939Z,57.13
2022-09-04T05:21:30.990Z,57.03
2022-09-04T05:23:05.480Z,57.85
2022-09-04T05:24:18.313Z,59.26
2022-09-04T05:26:12.700Z,60.34
2022-09-04T05:27:20.137Z,61.78
2022-09-04T05:28:21.676Z,62.61
2022-09-04T05:29:52.638Z,63.74
2022-09-04T05:31:24.815Z,63.80
2022-09-04T05:32:43.822Z,61.93
2022-09-04T05:33:57.614Z,60.34
2022-09-04T05:35:09.722Z,58.89
2022-09-04T05:36:30.094Z,57.16
2022-09-04T05:37:53.203Z,56.93
2022-09-04T05:38:54.786Z,57.78
2022-09-04T05:40:04.078Z,58.64
2022-09-04T05:41:24.189Z,59.58
2022-09-04T05:42:54.748Z,60.55
2022-09-04T05:44:17.448Z,61.70
2022-09-04T05:45:25.822Z,62.83
2022-09-04T05:46:33.375Z,63.97
2022-09-04T05:47:56.081Z,63.71
2022-09-04T05:49:18.582Z,62.15
2022-09-04T05:50:42.015Z,60.48
2022-09-04T05:52:12.877Z,58.80
2022-09-04T05:53:43.530Z,56.89
2022-09-04T05:55:01.104Z,57.02
2022-09-04T05:56:21.054Z,57.99
2022-09-04T05:57:46.285Z,59.05
2022-09-04T05:58:47.877Z,60.04
2022-09-04T06:00:07.145Z,60.75
2022-09-04T06:01:52.388Z,61.67
2022-09-04T06:03:24.725Z,62.58
2022-09-04T06:05:03.453Z,64.02
2022-09-04T06:06:27.346Z,63.14
2022-09-04T06:07:56.189Z,61.33
2022-09-04T06:09:39.408Z,59.42
2022-09-04T06:11:13.133Z,56.80
2022-09-04T06:12:23.834Z,56.79
2022-09-04T06:13:42.842Z,57.62
2022-09-04T06:15:30.622Z,58.52
2022-09-04T06:17:06.011Z,59.74
2022-09-04T06:18:32.401Z,60.78
2022-09-04T06:19:54.965Z,61.70
2022-09-04T06:21:18.341Z,62.46
2022-09-04T06:22:39.874Z,63.63
2022-09-04T06:23:53.358Z,63.00
2022-09-04T06:25:05.681Z,61.47
2022-09-04T06:26:33.255Z,59.91
2022-09-04T06:27:40.852Z,57.74
2022-09-04T06:29:00.484Z,56.50
2022-09-04T06:30:14.511Z,56.53
2022-09-04T06:31:18.881Z,57.11
2022-09-04T06:33:06.199Z,57.70
2022-09-04T06:35:03.493Z,58.65
2022-09-04T06:36:24.278Z,59.73
2022-09-04T06:37:55.492Z,60.28
2022-09-04T06:39:22.742Z,60.78
2022-09-04T06:40:55.097Z,61.28
2022-09-04T06:42:23.865Z,61.69
2022-09-04T06:43:55.836Z,61.85
2022-09-04T06:45:11.345Z,62.29
2022-09-04T06:46:41.698Z,63.29
2022-09-04T06:48:40.432Z,63.40
2022-09-04T06:50:22.860Z,60.86
2022-09-04T06:51:53.162Z,58.20
2022-09-04T06:53:33.435Z,56.09
2022-09-04T06:55:02.048Z,55.94
2022-09-04T06:56:29.646Z,56.40
2022-09-04T06:57:54.559Z,57.12
2022-09-04T06:59:16.109Z,57.72
2022-09-04T07:00:19.970Z,58.27
2022-09-04T07:02:04.223Z,58.86
2022-09-04T07:03:29.223Z,59.29
2022-09-04T07:04:49.212Z,59.43
2022-09-04T07:05:56.301Z,59.62
2022-09-04T07:07:00.790Z,59.82
2022-09-04T07:08:10.507Z,60.08
2022-09-04T07:09:23.129Z,60.22
2022-09-04T07:10:34.424Z,60.23
2022-09-04T07:12:05.161Z,60.18
2022-09-04T07:13:25.501Z,60.85
2022-09-04T07:14:52.066Z,61.44
2022-09-04T07:16:34.837Z,61.50
2022-09-04T07:18:06.549Z,61.49
2022-09-04T07:19:36.475Z,61.74
2022-09-04T07:21:10.805Z,61.83
2022-09-04T07:22:40.427Z,61.94
2022-09-04T07:24:13.718Z,62.09
2022-09-04T07:25:29.835Z,62.01
2022-09-04T07:26:53.269Z,62.04
2022-09-04T07:28:20.660Z,62.37
2022-09-04T07:29:36.398Z,62.21
2022-09-04T07:31:04.662Z,61.97
2022-09-04T07:32:42.804Z,61.71
2022-09-04T07:33:50.811Z,61.73
2022-09-04T07:35:21.190Z,61.97
2022-09-04T07:36:32.931Z,61.90
2022-09-04T07:37:58.339Z,61.91
2022-09-04T07:39:30.242Z,61.67
2022-09-04T07:40:52.961Z,61.20
2022-09-04T07:42:18.370Z,61.20
2022-09-04T07:43:34.961Z,61.22
2022-09-04T07:45:00.755Z,61.35
2022-09-04T07:46:22.636Z,61.54
2022-09-04T07:47:43.034Z,61.77
2022-09-04T07:49:05.959Z,61.89
2022-09-04T07:50:10.489Z,61.98
2022-09-04T07:51:28.641Z,61.94
2022-09-04T07:53:03.653Z,61.53
2022-09-04T07:54:22.554Z,61.11
2022-09-04T07:55:37.249Z,61.14
2022-09-04T07:56:54.867Z,61.60
2022-09-04T07:58:19.827Z,61.96
2022-09-04T07:59:33.558Z,61.56
2022-09-04T08:01:08.782Z,61.23
2022-09-04T08:02:38.009Z,61.24
2022-09-04T08:04:09.890Z,61.13
2022-09-04T08:05:24.107Z,60.75
2022-09-04T08:06:56.586Z,60.38
2022-09-04T08:08:16.643Z,60.51
2022-09-04T08:09:46.914Z,60.68
2022-09-04T08:11:13.412Z,60.80
2022-09-04T08:12:33.488Z,60.56
2022-09-04T08:13:44.270Z,60.54
2022-09-04T08:15:13.605Z,60.54
2022-09-04T08:16:36.160Z,59.95
2022-09-04T08:18:08.879Z,59.91
2022-09-04T08:19:40.701Z,59.60
2022-09-04T08:21:01.457Z,59.63
2022-09-04T08:22:05.932Z,59.61
2022-09-04T08:23:53.040Z,59.15
2022-09-04T08:25:12.248Z,59.44
2022-09-04T08:26:29.420Z,59.11
2022-09-04T08:27:42.945Z,58.72
2022-09-04T08:29:00.173Z,58.26
2022-09-04T08:30:04.685Z,57.91
2022-09-04T08:31:20.791Z,57.79
2022-09-04T08:32:43.135Z,57.33
2022-09-04T08:34:10.204Z,57.36
2022-09-04T08:35:30.348Z,56.83
2022-09-04T08:36:47.762Z,57.16
2022-09-04T08:38:20.522Z,57.43
2022-09-04T08:39:53.224Z,57.28
2022-09-04T08:41:18.049Z,56.69
2022-09-04T08:42:22.487Z,55.34
2022-09-04T08:43:53.965Z,55.37
2022-09-04T08:45:33.162Z,55.57
2022-09-04T08:47:22.475Z,55.64
2022-09-04T08:48:32.838Z,55.69
2022-09-04T08:49:56.320Z,55.97
2022-09-04T08:51:18.578Z,56.55
2022-09-04T08:52:53.245Z,56.33
2022-09-04T08:54:16.394Z,55.89
2022-09-04T08:55:46.871Z,55.38
2022-09-04T08:57:33.663Z,55.28
2022-09-04T08:59:03.166Z,55.15
2022-09-04T09:00:18.140Z,54.87
2022-09-04T09:01:41.295Z,55.05
2022-09-04T09:02:51.833Z,54.80
2022-09-04T09:04:12.268Z,54.49
2022-09-04T09:05:44.766Z,54.65
2022-09-04T09:07:04.630Z,54.90
2022-09-04T09:08:31.892Z,54.54
2022-09-04T09:10:10.890Z,54.23
2022-09-04T09:11:21.669Z,53.57
2022-09-04T09:12:58.284Z,53.70
2022-09-04T09:14:05.714Z,54.06
2022-09-04T09:15:42.205Z,53.88
2022-09-04T09:16:56.372Z,53.60
2022-09-04T09:18:10.081Z,53.34
2022-09-04T09:19:39.863Z,52.83
2022-09-04T09:21:01.163Z,52.89
2022-09-04T09:22:25.176Z,53.21
2022-09-04T09:23:44.750Z,53.38
2022-09-04T09:25:20.804Z,53.23
2022-09-04T09:26:35.433Z,53.64
2022-09-04T09:28:14.550Z,53.72
2022-09-04T09:29:50.949Z,53.47
2022-09-04T09:31:07.890Z,54.26
2022-09-04T09:32:24.165Z,53.88
2022-09-04T09:33:44.430Z,53.45
2022-09-04T09:35:01.775Z,53.61
2022-09-04T09:36:27.723Z,52.95
2022-09-04T09:37:49.605Z,53.42
2022-09-04T09:39:00.426Z,53.37
2022-09-04T09:40:37.304Z,52.92
2022-09-04T09:42:00.822Z,52.57
2022-09-04T09:43:27.152Z,52.75
2022-09-04T09:44:49.424Z,52.80
2022-09-04T09:46:32.653Z,52.73
2022-09-04T09:48:02.048Z,52.89
2022-09-04T09:49:30.733Z,51.78
2022-09-04T09:50:47.235Z,51.74
2022-09-04T09:52:19.565Z,51.76
2022-09-04T09:53:46.994Z,51.80
2022-09-04T09:55:07.774Z,52.22
2022-09-04T09:56:53.769Z,52.34
2022-09-04T09:58:22.809Z,51.87
2022-09-04T09:59:52.363Z,51.68
2022-09-04T10:01:24.931Z,51.72
2022-09-04T10:02:45.168Z,52.23
2022-09-04T10:04:22.626Z,52.19
2022-09-04T10:05:51.702Z,52.00
2022-09-04T10:07:38.331Z,52.05
2022-09-04T10:09:09.493Z,50.52
2022-09-04T10:10:48.405Z,49.91
2022-09-04T10:12:31.702Z,50.56
2022-09-04T10:13:59.546Z,50.48
2022-09-04T10:15:21.232Z,50.71
2022-09-04T10:16:43.055Z,49.98
2022-09-04T10:18:24.344Z,50.11
2022-09-04T10:19:51.274Z,49.58
2022-09-04T10:21:50.241Z,49.34
2022-09-04T10:23:29.369Z,50.07
2022-09-04T10:24:49.829Z,50.94
2022-09-04T10:26:19.343Z,51.19
2022-09-04T10:28:01.993Z,51.97
2022-09-04T10:29:32.781Z,51.14
2022-09-04T10:31:13.659Z,50.63
2022-09-04T10:32:36.881Z,51.04
2022-09-04T10:33:44.401Z,50.90
2022-09-04T10:34:58.262Z,50.50
2022-09-04T10:36:22.754Z,50.62
2022-09-04T10:37:45.756Z,51.44
2022-09-04T10:39:47.461Z,51.79
2022-09-04T10:41:29.880Z,51.63
2022-09-04T10:43:00.380Z,50.93
2022-09-04T10:44:11.035Z,51.07
2022-09-04T10:45:19.918Z,51.08
2022-09-04T10:46:28.988Z,50.87
2022-09-04T10:47:53.130Z,50.92
2022-09-04T10:49:30.524Z,51.07
2022-09-04T10:50:55.121Z,50.59
2022-09-04T10:52:24.497Z,51.15
2022-09-04T10:53:44.953Z,50.90
2022-09-04T10:55:23.085Z,50.12
2022-09-04T10:56:45.378Z,49.07
2022-09-04T10:58:27.657Z,49.13
2022-09-04T11:00:18.758Z,50.40
2022-09-04T11:01:43.472Z,50.47
2022-09-04T11:03:11.264Z,50.62
2022-09-04T11:04:28.428Z,50.50
2022-09-04T11:05:45.212Z,50.29
2022-09-04T11:07:32.029Z,50.47
2022-09-04T11:08:48.914Z,51.67
2022-09-04T11:10:24.511Z,52.17
2022-09-04T11:11:58.672Z,50.93
2022-09-04T11:13:09.553Z,50.71
2022-09-04T11:14:44.937Z,50.47
2022-09-04T11:15:59.789Z,50.41
2022-09-04T11:17:41.925Z,49.43
2022-09-04T11:19:11.239Z,49.33
2022-09-04T11:20:22.288Z,49.19
2022-09-04T11:21:45.133Z,49.03
2022-09-04T11:23:18.522Z,49.38
2022-09-04T11:25:09.734Z,50.10
2022-09-04T11:26:29.255Z,50.57
2022-09-04T11:27:47.705Z,49.60
2022-09-04T11:29:31.061Z,48.87
2022-09-04T11:30:52.141Z,48.75
2022-09-04T11:32:13.853Z,48.38
2022-09-04T11:33:40.040Z,47.81
2022-09-04T11:35:15.647Z,47.72
2022-09-04T11:36:44.011Z,46.73
2022-09-04T11:38:14.972Z,46.52
2022-09-04T11:39:53.649Z,46.74
2022-09-04T11:41:29.026Z,46.52
2022-09-04T11:42:47.129Z,45.98
2022-09-04T11:44:02.741Z,45.53
2022-09-04T11:45:41.363Z,45.21
2022-09-04T11:47:01.729Z,46.13
2022-09-04T11:48:26.372Z,46.12
2022-09-04T11:49:59.057Z,46.46
2022-09-04T11:51:22.041Z,45.25
2022-09-04T11:52:53.190Z,45.17
2022-09-04T11:54:17.262Z,45.29
2022-09-04T11:55:23.419Z,44.62
2022-09-04T11:56:35.496Z,44.25
2022-09-04T11:58:09.208Z,43.51
2022-09-04T11:59:41.848Z,43.45
2022-09-04T12:01:27.086Z,43.12
2022-09-04T12:02:49.526Z,43.01
2022-09-04T12:04:14.698Z,43.19
2022-09-04T12:05:52.217Z,42.92
2022-09-04T12:07:25.783Z,41.92
2022-09-04T12:08:52.130Z,41.66
2022-09-04T12:10:30.379Z,41.72
2022-09-04T12:11:47.988Z,42.35
2022-09-04T12:13:16.835Z,43.15
2022-09-04T12:14:24.296Z,42.13
2022-09-04T12:15:45.029Z,42.07
2022-09-04T12:16:55.668Z,41.90
2022-09-04T12:18:18.066Z,41.69
2022-09-04T12:19:39.906Z,42.27
2022-09-04T12:21:12.404Z,43.34
2022-09-04T12:22:42.329Z,44.00
2022-09-04T12:24:01.909Z,44.54
2022-09-04T12:25:39.898Z,44.41
2022-09-04T12:26:51.227Z,43.33
2022-09-04T12:28:29.614Z,42.55
2022-09-04T12:29:43.760Z,42.31
2022-09-04T12:31:07.810Z,41.51
2022-09-04T12:32:22.701Z,41.64
2022-09-04T12:33:42.804Z,42.04
2022-09-04T12:35:12.422Z,41.11
2022-09-04T12:36:33.263Z,40.80
2022-09-04T12:38:09.679Z,40.74
2022-09-04T12:39:32.503Z,40.70
2022-09-04T12:40:51.689Z,40.47
2022-09-04T12:42:15.066Z,40.22
2022-09-04T12:43:42.857Z,40.93
2022-09-04T12:44:47.455Z,40.68
2022-09-04T12:45:58.629Z,41.00
2022-09-04T12:47:22.442Z,40.87
2022-09-04T12:48:42.621Z,40.72
2022-09-04T12:50:05.933Z,40.42
2022-09-04T12:51:13.236Z,40.87
2022-09-04T12:52:19.054Z,41.04
2022-09-04T12:53:37.800Z,41.23
2022-09-04T12:54:51.973Z,41.63
2022-09-04T12:56:05.878Z,41.85
2022-09-04T12:57:25.904Z,42.23
2022-09-04T12:58:52.428Z,42.65
2022-09-04T13:00:08.983Z,42.74
2022-09-04T13:01:32.073Z,42.88
2022-09-04T13:02:46.819Z,43.09
2022-09-04T13:04:08.647Z,43.33
2022-09-04T13:05:25.881Z,43.09
2022-09-04T13:06:59.443Z,43.22
2022-09-04T13:08:38.937Z,42.90
2022-09-04T13:09:58.712Z,41.90
2022-09-04T13:11:21.213Z,41.37
2022-09-04T13:13:00.265Z,42.01
2022-09-04T13:14:20.259Z,42.01
2022-09-04T13:15:32.808Z,42.23
2022-09-04T13:17:23.516Z,42.19
2022-09-04T13:19:00.404Z,42.25
2022-09-04T13:20:24.598Z,42.29
2022-09-04T13:22:19.909Z,42.18
2022-09-04T13:23:50.724Z,42.93
2022-09-04T13:25:11.496Z,43.06
2022-09-04T13:26:38.163Z,43.39
2022-09-04T13:28:05.126Z,43.71
2022-09-04T13:29:42.993Z,43.11
2022-09-04T13:31:24.376Z,42.25
2022-09-04T13:32:31.973Z,42.73
2022-09-04T13:34:09.865Z,42.68
2022-09-04T13:35:28.018Z,42.73
2022-09-04T13:36:38.557Z,43.13
2022-09-04T13:38:02.772Z,42.40
2022-09-04T13:39:07.050Z,42.49
2022-09-04T13:40:39.670Z,42.29
2022-09-04T13:42:03.307Z,42.79
2022-09-04T13:43:17.857Z,43.11
2022-09-04T13:45:02.071Z,43.60
2022-09-04T13:46:11.573Z,44.09
2022-09-04T13:47:32.268Z,43.84
2022-09-04T13:48:52.201Z,43.28
2022-09-04T13:50:08.542Z,42.30
2022-09-04T13:51:16.458Z,42.06
2022-09-04T13:52:30.259Z,42.01
2022-09-04T13:53:58.915Z,42.15
2022-09-04T13:55:12.725Z,41.04
2022-09-04T13:56:26.302Z,39.91
2022-09-04T13:57:36.118Z,39.49
2022-09-04T13:58:47.699Z,39.18
2022-09-04T13:59:50.923Z,39.04
2022-09-04T14:00:59.254Z,39.26
2022-09-04T14:02:08.644Z,39.37
2022-09-04T14:03:20.217Z,39.84
2022-09-04T14:04:31.259Z,39.34
2022-09-04T14:05:37.513Z,39.09
2022-09-04T14:06:39.942Z,39.06
2022-09-04T14:07:49.188Z,39.12
2022-09-04T14:09:05.278Z,38.80
2022-09-04T14:10:25.807Z,38.71
2022-09-04T14:11:27.765Z,38.21
2022-09-04T14:13:00.084Z,37.78
2022-09-04T14:14:30.782Z,37.23
2022-09-04T14:15:48.036Z,36.53
2022-09-04T14:16:50.298Z,36.37
2022-09-04T14:18:37.898Z,36.07
2022-09-04T14:19:57.654Z,35.77
2022-09-04T14:21:21.127Z,34.96
2022-09-04T14:22:52.224Z,34.95
2022-09-04T14:24:20.773Z,35.32
2022-09-04T14:25:38.555Z,35.35
2022-09-04T14:27:25.021Z,34.89
2022-09-04T14:28:39.332Z,35.14
2022-09-04T14:30:02.410Z,34.98
2022-09-04T14:31:32.628Z,34.14
2022-09-04T14:32:58.201Z,34.52
2022-09-04T14:34:19.048Z,34.62
2022-09-04T14:35:49.442Z,35.04
2022-09-04T14:37:24.018Z,35.12
2022-09-04T14:38:42.501Z,35.28
2022-09-04T14:40:15.681Z,35.29
2022-09-04T14:41:44.245Z,34.78
2022-09-04T14:42:58.270Z,34.64
2022-09-04T14:44:22.584Z,35.04
2022-09-04T14:45:33.545Z,35.22
2022-09-04T14:46:47.570Z,35.21
2022-09-04T14:48:03.575Z,35.53
2022-09-04T14:49:10.509Z,35.36
2022-09-04T14:50:17.031Z,35.90
2022-09-04T14:51:21.393Z,36.01
2022-09-04T14:52:39.960Z,35.99
2022-09-04T14:53:49.038Z,35.93
2022-09-04T14:54:57.961Z,35.73
2022-09-04T14:56:11.690Z,35.67
2022-09-04T14:57:42.150Z,36.36
2022-09-04T14:58:54.228Z,36.47
2022-09-04T15:00:18.421Z,36.40
2022-09-04T15:01:23.107Z,36.18
2022-09-04T15:02:36.631Z,35.97
2022-09-04T15:03:50.912Z,36.17
2022-09-04T15:05:03.709Z,36.29
2022-09-04T15:06:16.223Z,36.46
2022-09-04T15:07:42.282Z,37.01
2022-09-04T15:08:45.353Z,36.78
2022-09-04T15:09:49.999Z,36.73
2022-09-04T15:11:00.411Z,36.82
2022-09-04T15:12:26.856Z,36.93
2022-09-04T15:13:28.466Z,37.57
2022-09-04T15:14:36.283Z,38.17
2022-09-04T15:15:51.507Z,37.94
2022-09-04T15:17:00.685Z,37.69
2022-09-04T15:18:25.890Z,37.70
2022-09-04T15:19:55.018Z,37.60
2022-09-04T15:21:11.349Z,37.89
2022-09-04T15:22:29.588Z,38.10
2022-09-04T15:23:43.838Z,38.37
2022-09-04T15:24:45.396Z,38.38
2022-09-04T15:26:07.864Z,38.32
2022-09-04T15:27:19.906Z,38.61
2022-09-04T15:28:38.372Z,38.63
2022-09-04T15:29:48.740Z,38.90
2022-09-04T15:31:10.915Z,39.03
2022-09-04T15:32:23.540Z,39.23
2022-09-04T15:33:25.648Z,39.50
2022-09-04T15:34:29.645Z,39.91
2022-09-04T15:35:33.936Z,40.13
2022-09-04T15:36:37.761Z,40.45
2022-09-04T15:37:42.012Z,40.76
2022-09-04T15:39:06.289Z,40.74
2022-09-04T15:40:35.119Z,40.92
2022-09-04T15:41:44.786Z,41.15
2022-09-04T15:43:17.160Z,41.58
2022-09-04T15:44:39.493Z,41.77
2022-09-04T15:45:53.368Z,41.87
2022-09-04T15:47:18.206Z,42.03
2022-09-04T15:48:41.270Z,42.50
2022-09-04T15:49:59.920Z,42.51
2022-09-04T15:51:20.113Z,42.78
2022-09-04T15:52:42.626Z,42.82
2022-09-04T15:54:12.178Z,42.90
2022-09-04T15:55:29.936Z,42.98
2022-09-04T15:56:56.228Z,43.18
2022-09-04T15:58:29.388Z,43.46
2022-09-04T15:59:45.403Z,43.70
2022-09-04T16:01:06.056Z,44.27
2022-09-04T16:02:54.596Z,44.09
2022-09-04T16:04:37.517Z,44.22
2022-09-04T16:05:49.073Z,44.51
2022-09-04T16:07:22.624Z,44.49
2022-09-04T16:08:36.564Z,44.90
2022-09-04T16:09:48.494Z,45.25
2022-09-04T16:11:02.606Z,45.72
2022-09-04T16:12:27.949Z,46.11
2022-09-04T16:13:45.354Z,47.00
2022-09-04T16:14:59.942Z,47.61
2022-09-04T16:16:13.947Z,48.13
2022-09-04T16:17:26.628Z,48.41
2022-09-04T16:18:50.417Z,47.84
2022-09-04T16:20:20.286Z,47.92
2022-09-04T16:21:42.839Z,48.36
2022-09-04T16:23:00.593Z,48.45
2022-09-04T16:24:11.922Z,48.40
2022-09-04T16:25:23.453Z,48.50
2022-09-04T16:26:32.973Z,49.14
2022-09-04T16:27:45.448Z,49.09
2022-09-04T16:28:55.878Z,49.28
2022-09-04T16:30:03.869Z,49.84
2022-09-04T16:31:14.369Z,49.74
2022-09-04T16:32:22.493Z,50.02
2022-09-04T16:33:37.896Z,49.95
2022-09-04T16:34:59.991Z,50.00
2022-09-04T16:36:26.821Z,50.44
2022-09-04T16:37:43.014Z,50.69
2022-09-04T16:39:13.333Z,51.00
2022-09-04T16:40:40.521Z,50.65
2022-09-04T16:41:58.054Z,50.90
2022-09-04T16:43:22.628Z,51.02
2022-09-04T16:44:44.380Z,51.11
2022-09-04T16:46:09.993Z,51.45
2022-09-04T16:47:22.659Z,51.83
2022-09-04T16:48:51.611Z,52.35
2022-09-04T16:50:13.369Z,52.13
2022-09-04T16:51:43.259Z,52.32
2022-09-04T16:53:13.334Z,52.83
2022-09-04T16:54:41.328Z,53.26
2022-09-04T16:56:10.238Z,53.55
2022-09-04T16:57:15.443Z,53.77
2022-09-04T16:58:35.780Z,53.95
2022-09-04T16:59:46.096Z,54.04
2022-09-04T17:01:17.963Z,54.17
2022-09-04T17:02:36.113Z,54.30
2022-09-04T17:03:49.248Z,54.69
2022-09-04T17:05:11.333Z,55.03
2022-09-04T17:06:42.838Z,55.07
2022-09-04T17:08:22.791Z,55.27
2022-09-04T17:09:34.166Z,55.82
2022-09-04T17:10:55.125Z,56.18
2022-09-04T17:12:17.761Z,56.53
2022-09-04T17:13:37.955Z,57.15
2022-09-04T17:14:51.222Z,57.57
2022-09-04T17:16:11.487Z,57.89
2022-09-04T17:17:30.998Z,58.39
2022-09-04T17:18:36.598Z,58.82
2022-09-04T17:19:43.073Z,59.14
2022-09-04T17:23:08.782Z,59.43
2022-09-04T17:28:57.233Z,59.82
2022-09-04T17:28:57.381Z,60.22
2022-09-04T17:29:11.929Z,60.83
2022-09-04T17:29:13.396Z,61.11
2022-09-04T17:29:22.446Z,60.52
2022-09-04T17:30:29.174Z,61.27
2022-09-04T17:31:49.719Z,61.47
2022-09-04T17:36:43.077Z,61.63
2022-09-04T17:40:36.879Z,61.90
2022-09-04T17:40:47.893Z,62.16
2022-09-04T17:40:48.046Z,63.55
2022-09-04T17:40:51.160Z,62.38
2022-09-04T17:41:56.941Z,63.30
2022-09-04T17:43:23.431Z,61.34
2022-09-04T17:45:02.256Z,59.42
2022-09-04T17:46:27.717Z,56.42
2022-09-04T17:47:43.818Z,55.77